createdAt,value
2022-11-16T00:00:36.578Z,8.80
2022-11-16T00:03:04.386Z,8.27
2022-11-16T00:05:32.051Z,7.88
2022-11-16T00:07:59.705Z,6.57
2022-11-16T00:10:27.302Z,8.13
2022-11-16T00:13:13.822Z,7.65
2022-11-16T00:15:42.675Z,8.85
2022-11-16T00:18:10.279Z,7.00
2022-11-16T00:20:39.083Z,7.97
2022-11-16T00:23:06.666Z,7.30
2022-11-16T00:25:34.530Z,8.75
2022-11-16T00:28:02.133Z,7.10
2022-11-16T00:30:29.778Z,8.33
2022-11-16T00:33:02.078Z,8.90
2022-11-16T00:35:29.722Z,7.23
2022-11-16T00:37:57.396Z,7.80
2022-11-16T00:40:25.144Z,7.10
2022-11-16T00:42:53.328Z,8.43
2022-11-16T00:45:21.023Z,9.40
2022-11-16T00:47:48.730Z,11.02
2022-11-16T00:50:17.888Z,10.70
2022-11-16T00:52:45.560Z,10.50
2022-11-16T00:55:13.286Z,10.95
2022-11-16T00:57:40.887Z,9.18
2022-11-16T01:00:09.556Z,9.18
2022-11-16T01:02:37.168Z,11.05
2022-11-16T01:05:04.991Z,8.73
2022-11-16T01:07:35.180Z,11.50
2022-11-16T01:10:04.794Z,9.48
2022-11-16T01:12:31.534Z,8.00
2022-11-16T01:15:00.733Z,15.43
2022-11-16T01:17:29.458Z,10.43
2022-11-16T01:19:57.061Z,9.75
2022-11-16T01:22:24.777Z,15.05
2022-11-16T01:24:53.713Z,15.75
2022-11-16T01:27:21.446Z,12.27
2022-11-16T01:29:49.035Z,10.00
2022-11-16T01:32:17.647Z,10.95
2022-11-16T01:34:45.482Z,13.68
2022-11-16T01:37:23.485Z,12.73
2022-11-16T01:39:51.554Z,11.18
2022-11-16T01:42:21.722Z,11.38
2022-11-16T01:45:00.419Z,9.15
2022-11-16T01:47:28.513Z,10.05
2022-11-16T01:50:02.659Z,9.20
2022-11-16T01:52:33.920Z,12.52
2022-11-16T01:55:03.079Z,13.05
2022-11-16T01:57:43.315Z,9.68
2022-11-16T02:00:14.840Z,17.42
2022-11-16T02:02:48.701Z,9.57
2022-11-16T02:05:32.101Z,10.15
2022-11-16T02:08:19.425Z,11.82
2022-11-16T02:10:54.156Z,9.65
2022-11-16T02:13:29.149Z,11.53
2022-11-16T02:16:00.505Z,11.25
2022-11-16T02:18:36.617Z,12.90
2022-11-16T02:21:08.999Z,13.52
2022-11-16T02:23:46.654Z,14.80
2022-11-16T02:26:22.189Z,12.77
2022-11-16T02:28:56.108Z,12.27
2022-11-16T02:31:28.369Z,10.87
2022-11-16T02:33:59.456Z,11.77
2022-11-16T02:36:27.052Z,11.90
2022-11-16T02:38:56.663Z,10.40
2022-11-16T02:41:25.235Z,10.10
2022-11-16T02:43:56.388Z,10.98
2022-11-16T02:46:28.415Z,10.93
2022-11-16T02:48:58.296Z,11.25
2022-11-16T02:51:28.025Z,12.20
2022-11-16T02:54:00.974Z,13.63
2022-11-16T02:56:30.153Z,11.55
2022-11-16T02:58:58.715Z,11.87
2022-11-16T03:01:31.965Z,10.93
2022-11-16T03:04:02.502Z,13.00
2022-11-16T03:06:32.212Z,11.10
2022-11-16T03:09:01.397Z,13.70
2022-11-16T03:11:40.676Z,13.87
2022-11-16T03:14:11.071Z,10.10
2022-11-16T03:16:41.961Z,17.50
2022-11-16T03:19:11.616Z,13.10
2022-11-16T03:21:41.969Z,13.40
2022-11-16T03:24:09.869Z,13.37
2022-11-16T03:26:43.787Z,16.60
2022-11-16T03:29:15.181Z,13.60
2022-11-16T03:31:46.738Z,11.65
2022-11-16T03:34:20.309Z,11.97
2022-11-16T03:37:07.087Z,15.97
2022-11-16T03:39:39.512Z,14.07
2022-11-16T03:42:10.275Z,11.87
2022-11-16T03:44:39.051Z,12.63
2022-11-16T03:47:09.304Z,14.00
2022-11-16T03:49:37.026Z,12.70
2022-11-16T03:52:04.981Z,14.40
2022-11-16T03:54:34.092Z,11.70
2022-11-16T03:57:02.386Z,12.37
2022-11-16T03:59:30.049Z,10.63
2022-11-16T04:01:58.269Z,15.23
2022-11-16T04:04:37.539Z,13.70
2022-11-16T04:07:14.051Z,11.67
2022-11-16T04:09:52.988Z,14.53
2022-11-16T04:12:34.571Z,12.07
2022-11-16T04:15:11.331Z,14.23
2022-11-16T04:17:51.079Z,11.80
2022-11-16T04:20:33.959Z,12.23
2022-11-16T04:23:13.339Z,12.70
2022-11-16T04:25:41.389Z,11.67
2022-11-16T04:28:16.323Z,11.53
2022-11-16T04:30:59.444Z,10.07
2022-11-16T04:33:37.602Z,9.77
2022-11-16T04:36:20.378Z,8.20
2022-11-16T04:38:48.400Z,8.93
2022-11-16T04:41:30.289Z,10.37
2022-11-16T04:43:58.331Z,8.93
2022-11-16T04:46:36.597Z,9.93
2022-11-16T04:49:04.240Z,10.23
2022-11-16T04:51:33.658Z,10.43
2022-11-16T04:54:01.444Z,10.80
2022-11-16T04:56:29.079Z,12.77
2022-11-16T04:58:57.025Z,8.57
2022-11-16T05:01:44.663Z,10.13
2022-11-16T05:04:12.554Z,9.80
2022-11-16T05:06:41.581Z,10.27
2022-11-16T05:09:09.789Z,12.00
2022-11-16T05:11:37.455Z,14.87
2022-11-16T05:14:24.077Z,13.90
2022-11-16T05:16:51.868Z,11.67
2022-11-16T05:19:29.596Z,11.40
2022-11-16T05:22:00.920Z,13.93
2022-11-16T05:24:36.067Z,10.97
2022-11-16T05:27:05.829Z,13.43
2022-11-16T05:29:33.508Z,13.23
2022-11-16T05:32:02.244Z,13.97
2022-11-16T05:34:29.846Z,11.17
2022-11-16T05:36:57.978Z,9.53
2022-11-16T05:39:27.162Z,12.23
2022-11-16T05:41:55.384Z,14.23
2022-11-16T05:44:23.635Z,12.87
2022-11-16T05:46:51.691Z,15.13
2022-11-16T05:49:20.205Z,13.43
2022-11-16T05:51:48.254Z,12.33
2022-11-16T05:54:19.592Z,12.13
2022-11-16T05:56:49.118Z,13.65
2022-11-16T05:59:19.313Z,14.73
2022-11-16T06:01:50.011Z,13.27
2022-11-16T06:04:24.015Z,12.50
2022-11-16T06:06:51.844Z,10.17
2022-11-16T06:09:20.118Z,12.47
2022-11-16T06:11:50.740Z,11.93
2022-11-16T06:14:18.328Z,12.43
2022-11-16T06:16:46.141Z,12.67
2022-11-16T06:19:13.814Z,13.80
2022-11-16T06:21:41.916Z,13.03
2022-11-16T06:24:15.374Z,14.00
2022-11-16T06:26:43.671Z,16.67
2022-11-16T06:29:12.763Z,15.97
2022-11-16T06:31:40.673Z,16.43
2022-11-16T06:34:08.323Z,10.90
2022-11-16T06:36:36.165Z,11.23
2022-11-16T06:39:04.040Z,14.63
2022-11-16T06:41:41.114Z,13.03
2022-11-16T06:44:10.219Z,10.67
2022-11-16T06:46:43.611Z,12.60
2022-11-16T06:49:11.247Z,13.03
2022-11-16T06:51:38.954Z,15.57
2022-11-16T06:54:06.815Z,10.40
2022-11-16T06:56:34.806Z,11.00
2022-11-16T06:59:02.464Z,11.53
2022-11-16T07:01:30.763Z,12.63
2022-11-16T07:04:05.744Z,11.07
2022-11-16T07:06:34.186Z,16.93
2022-11-16T07:09:01.847Z,12.13
2022-11-16T07:11:32.431Z,16.00
2022-11-16T07:14:00.402Z,11.80
2022-11-16T07:16:29.254Z,15.97
2022-11-16T07:19:00.710Z,14.57
2022-11-16T07:21:32.019Z,13.20
2022-11-16T07:24:02.610Z,12.97
2022-11-16T07:26:31.175Z,11.53
2022-11-16T07:29:04.074Z,13.50
2022-11-16T07:31:51.796Z,12.17
2022-11-16T07:34:30.684Z,11.80
2022-11-16T07:37:07.787Z,9.73
2022-11-16T07:39:35.409Z,11.90
2022-11-16T07:42:06.051Z,15.73
2022-11-16T07:44:53.593Z,12.93
2022-11-16T07:47:21.300Z,12.05
2022-11-16T07:49:49.503Z,11.23
2022-11-16T07:52:21.881Z,12.87
2022-11-16T07:54:58.518Z,11.03
2022-11-16T07:57:28.301Z,12.27
2022-11-16T07:59:58.871Z,12.37
2022-11-16T08:02:27.504Z,11.33
2022-11-16T08:04:56.068Z,11.33
2022-11-16T08:07:28.524Z,10.87
2022-11-16T08:09:57.296Z,12.50
2022-11-16T08:12:24.981Z,16.33
2022-11-16T08:14:53.546Z,13.55
2022-11-16T08:17:21.542Z,17.27
2022-11-16T08:19:50.356Z,11.20
2022-11-16T08:22:17.960Z,11.73
2022-11-16T08:24:48.352Z,14.65
2022-11-16T08:27:17.460Z,15.13
2022-11-16T08:29:48.418Z,15.07
2022-11-16T08:32:16.551Z,14.25
2022-11-16T08:34:44.795Z,10.85
2022-11-16T08:37:12.500Z,15.07
2022-11-16T08:40:03.499Z,12.53
2022-11-16T08:42:37.239Z,11.77
2022-11-16T08:45:08.633Z,18.38
2022-11-16T08:47:36.243Z,13.02
2022-11-16T08:50:05.085Z,11.50
2022-11-16T08:52:33.293Z,9.00
2022-11-16T08:55:02.140Z,13.68
2022-11-16T08:57:30.896Z,13.63
2022-11-16T09:00:02.275Z,12.85
2022-11-16T09:02:30.265Z,14.18
2022-11-16T09:04:57.867Z,14.38
2022-11-16T09:07:25.626Z,15.90
2022-11-16T09:09:53.360Z,19.67
2022-11-16T09:12:20.991Z,14.00
2022-11-16T09:14:48.664Z,16.30
2022-11-16T09:17:22.820Z,14.68
2022-11-16T09:19:50.964Z,17.48
2022-11-16T09:22:18.570Z,15.85
2022-11-16T09:24:46.190Z,13.93
2022-11-16T09:27:14.946Z,14.60
2022-11-16T09:29:42.626Z,18.83
2022-11-16T09:32:10.381Z,12.35
2022-11-16T09:34:39.260Z,12.95
2022-11-16T09:37:07.988Z,12.88
2022-11-16T09:39:35.740Z,8.63
2022-11-16T09:42:11.059Z,11.20
2022-11-16T09:44:43.532Z,9.32
2022-11-16T09:47:15.747Z,8.30
2022-11-16T09:49:47.086Z,8.82
2022-11-16T09:52:19.689Z,10.65
2022-11-16T09:54:48.384Z,11.13
2022-11-16T09:57:18.796Z,9.95
2022-11-16T09:59:49.395Z,11.43
2022-11-16T10:02:20.384Z,11.70
2022-11-16T10:04:57.962Z,12.40
2022-11-16T10:07:28.730Z,9.02
2022-11-16T10:09:56.871Z,9.80
2022-11-16T10:12:27.681Z,10.20
2022-11-16T10:15:04.740Z,9.85
2022-11-16T10:17:39.252Z,7.80
2022-11-16T10:20:17.856Z,8.57
2022-11-16T10:22:50.751Z,6.57
2022-11-16T10:25:21.428Z,9.52
2022-11-16T10:27:58.492Z,8.93
2022-11-16T10:30:26.125Z,6.47
2022-11-16T10:32:55.422Z,8.38
2022-11-16T10:35:26.716Z,6.80
2022-11-16T10:37:54.304Z,6.25
2022-11-16T10:40:24.497Z,7.00
2022-11-16T10:42:58.483Z,6.60
2022-11-16T10:45:29.206Z,4.40
2022-11-16T10:47:59.309Z,8.00
2022-11-16T10:50:32.416Z,6.57
2022-11-16T10:53:00.113Z,8.13
2022-11-16T10:55:28.771Z,7.47
2022-11-16T10:57:57.721Z,7.18
2022-11-16T11:00:36.784Z,5.20
2022-11-16T11:03:04.531Z,5.18
2022-11-16T11:05:34.673Z,3.58
2022-11-16T11:08:04.416Z,4.30
2022-11-16T11:10:33.160Z,6.50
2022-11-16T11:13:03.407Z,3.10
2022-11-16T11:15:31.131Z,2.20
2022-11-16T11:18:08.987Z,1.92
2022-11-16T11:20:44.296Z,2.88
2022-11-16T11:23:14.945Z,5.25
2022-11-16T11:25:49.635Z,3.05
2022-11-16T11:28:20.040Z,2.15
2022-11-16T11:30:57.165Z,3.08
2022-11-16T11:33:25.532Z,1.92
2022-11-16T11:36:00.867Z,2.47
2022-11-16T11:38:28.487Z,1.75
2022-11-16T11:40:58.274Z,1.50
2022-11-16T11:43:26.427Z,3.08
2022-11-16T11:45:56.722Z,3.72
2022-11-16T11:48:29.602Z,1.75
2022-11-16T11:51:00.563Z,1.80
2022-11-16T11:53:36.900Z,2.10
2022-11-16T11:56:04.810Z,3.10
2022-11-16T11:58:33.397Z,2.08
2022-11-16T12:01:09.912Z,2.72
2022-11-16T12:03:44.768Z,3.15
2022-11-16T12:06:19.654Z,2.15
2022-11-16T12:08:55.973Z,1.80
2022-11-16T12:11:30.232Z,2.13
2022-11-16T12:14:03.113Z,1.83
2022-11-16T12:16:33.455Z,2.10
2022-11-16T12:19:06.934Z,0.80
2022-11-16T12:21:41.793Z,1.60
2022-11-16T12:24:15.903Z,1.15
2022-11-16T12:26:48.458Z,1.98
2022-11-16T12:29:24.077Z,1.65
2022-11-16T12:31:59.311Z,1.60
2022-11-16T12:34:36.560Z,6.22
2022-11-16T12:37:11.291Z,2.65
2022-11-16T12:39:41.347Z,4.60
2022-11-16T12:42:15.131Z,6.10
2022-11-16T12:44:54.982Z,1.67
2022-11-16T12:47:25.802Z,1.55
2022-11-16T12:50:01.311Z,2.53
2022-11-16T12:52:39.475Z,6.03
2022-11-16T12:55:25.743Z,0.98
2022-11-16T12:58:00.887Z,1.95
2022-11-16T13:00:29.691Z,4.30
2022-11-16T13:03:01.302Z,2.13
2022-11-16T13:05:41.031Z,2.00
2022-11-16T13:08:12.999Z,1.52
2022-11-16T13:10:45.432Z,1.45
2022-11-16T13:13:49.726Z,1.88
2022-11-16T13:16:02.991Z,1.98
2022-11-16T13:18:31.552Z,6.20
2022-11-16T13:21:02.399Z,1.42
2022-11-16T13:23:42.359Z,3.38
2022-11-16T13:26:12.687Z,3.92
2022-11-16T13:28:43.045Z,17.40
2022-11-16T13:31:13.315Z,10.85
2022-11-16T13:33:49.292Z,9.70
2022-11-16T13:36:28.488Z,1.63
2022-11-16T13:38:57.338Z,4.55
2022-11-16T13:41:28.780Z,3.55
2022-11-16T13:43:56.946Z,9.27
2022-11-16T13:46:54.021Z,3.97
2022-11-16T13:49:27.673Z,5.25
2022-11-16T13:51:56.405Z,7.82
2022-11-16T13:54:50.002Z,13.02
2022-11-16T13:57:22.163Z,3.30
2022-11-16T13:59:52.662Z,10.13
2022-11-16T14:02:29.670Z,2.03
2022-11-16T14:04:58.736Z,3.45
2022-11-16T14:07:35.230Z,5.53
2022-11-16T14:10:06.016Z,2.75
2022-11-16T14:12:48.547Z,5.35
2022-11-16T14:15:17.346Z,3.47
2022-11-16T14:17:54.790Z,6.30
2022-11-16T14:20:34.304Z,1.88
2022-11-16T14:23:07.783Z,5.18
2022-11-16T14:25:40.377Z,3.38
2022-11-16T14:28:14.204Z,2.20
2022-11-16T14:30:47.979Z,2.03
2022-11-16T14:33:24.634Z,4.30
2022-11-16T14:35:53.702Z,4.80
2022-11-16T14:38:25.301Z,1.85
2022-11-16T14:40:59.396Z,1.55
2022-11-16T14:43:29.103Z,2.15
2022-11-16T14:45:58.727Z,2.25
2022-11-16T14:48:26.844Z,4.55
2022-11-16T14:51:05.121Z,5.60
2022-11-16T14:53:34.384Z,2.05
2022-11-16T14:56:12.184Z,2.45
2022-11-16T14:58:40.401Z,4.05
2022-11-16T15:01:09.011Z,2.65
2022-11-16T15:03:39.681Z,6.93
2022-11-16T15:06:08.087Z,6.35
2022-11-16T15:08:38.221Z,2.13
2022-11-16T15:11:08.551Z,2.35
2022-11-16T15:13:37.753Z,2.17
2022-11-16T15:16:08.919Z,2.55
2022-11-16T15:18:36.690Z,2.17
2022-11-16T15:21:04.344Z,2.03
2022-11-16T15:23:32.375Z,5.13
2022-11-16T15:26:02.270Z,1.77
2022-11-16T15:28:31.641Z,2.13
2022-11-16T15:31:01.472Z,3.80
2022-11-16T15:33:30.356Z,2.28
2022-11-16T15:35:58.476Z,3.58
2022-11-16T15:38:28.635Z,6.10
2022-11-16T15:40:57.457Z,5.78
2022-11-16T15:43:26.193Z,4.43
2022-11-16T15:45:54.097Z,1.95
2022-11-16T15:48:23.794Z,5.57
2022-11-16T15:51:04.306Z,9.68
2022-11-16T15:53:34.808Z,6.05
2022-11-16T15:56:03.212Z,9.38
2022-11-16T15:58:33.061Z,14.88
2022-11-16T16:01:01.031Z,5.75
2022-11-16T16:03:31.684Z,6.72
2022-11-16T16:05:59.538Z,3.78
2022-11-16T16:08:29.833Z,3.55
2022-11-16T16:11:01.680Z,4.67
2022-11-16T16:13:57.483Z,2.63
2022-11-16T16:16:27.282Z,9.35
2022-11-16T16:18:58.060Z,10.05
2022-11-16T16:21:26.660Z,5.47
2022-11-16T16:23:55.370Z,2.95
2022-11-16T16:26:24.043Z,4.88
2022-11-16T16:28:51.887Z,2.45
2022-11-16T16:31:20.547Z,2.30
2022-11-16T16:33:48.192Z,3.58
2022-11-16T16:36:17.246Z,11.43
2022-11-16T16:38:44.944Z,2.53
2022-11-16T16:41:22.678Z,7.00
2022-11-16T16:43:51.723Z,4.70
2022-11-16T16:46:19.822Z,3.07
2022-11-16T16:48:47.444Z,7.20
2022-11-16T16:51:15.263Z,5.03
2022-11-16T16:53:44.189Z,2.73
2022-11-16T16:56:15.272Z,3.43
2022-11-16T16:58:43.060Z,3.13
2022-11-16T17:01:11.411Z,4.18
2022-11-16T17:03:39.038Z,2.50
2022-11-16T17:06:06.844Z,4.45
2022-11-16T17:08:35.135Z,4.07
2022-11-16T17:11:04.129Z,3.00
2022-11-16T17:13:32.043Z,3.57
2022-11-16T17:15:59.973Z,7.07
2022-11-16T17:18:27.942Z,2.73
2022-11-16T17:20:55.545Z,10.40
2022-11-16T17:23:23.350Z,4.53
2022-11-16T17:25:50.927Z,4.80
2022-11-16T17:28:19.863Z,4.67
2022-11-16T17:30:47.533Z,2.27
2022-11-16T17:33:15.151Z,6.13
2022-11-16T17:35:42.755Z,3.73
2022-11-16T17:38:12.297Z,2.40
2022-11-16T17:40:39.856Z,2.13
2022-11-16T17:43:07.438Z,4.50
2022-11-16T17:45:36.334Z,2.47
2022-11-16T17:48:03.990Z,3.50
2022-11-16T17:50:31.658Z,3.80
2022-11-16T17:52:59.251Z,3.87
2022-11-16T17:55:26.846Z,3.03
2022-11-16T17:57:54.724Z,4.03
2022-11-16T18:00:22.505Z,3.43
2022-11-16T18:02:51.420Z,4.20
2022-11-16T18:05:19.033Z,2.30
2022-11-16T18:07:46.960Z,6.07
2022-11-16T18:10:19.037Z,4.27
2022-11-16T18:12:47.074Z,4.47
2022-11-16T18:15:27.901Z,4.30
2022-11-16T18:17:57.957Z,3.77
2022-11-16T18:20:27.558Z,2.77
2022-11-16T18:22:55.127Z,7.93
2022-11-16T18:25:22.927Z,12.23
2022-11-16T18:27:51.315Z,10.70
2022-11-16T18:30:19.021Z,9.60
2022-11-16T18:32:46.613Z,9.40
2022-11-16T18:35:16.013Z,14.43
2022-11-16T18:37:43.856Z,9.20
2022-11-16T18:40:12.077Z,3.83
2022-11-16T18:42:39.924Z,3.83
2022-11-16T18:45:08.010Z,6.93
2022-11-16T18:47:35.582Z,2.33
2022-11-16T18:50:03.196Z,5.20
2022-11-16T18:52:32.075Z,2.60
2022-11-16T18:54:59.675Z,3.13
2022-11-16T18:57:27.547Z,12.70
2022-11-16T18:59:55.146Z,8.33
2022-11-16T19:02:22.950Z,3.93
2022-11-16T19:04:50.578Z,3.27
2022-11-16T19:07:18.482Z,2.00
2022-11-16T19:09:47.439Z,2.10
2022-11-16T19:12:14.982Z,2.30
2022-11-16T19:14:42.921Z,3.50
2022-11-16T19:17:10.685Z,2.83
2022-11-16T19:19:38.395Z,4.20
2022-11-16T19:22:05.988Z,2.97
2022-11-16T19:24:33.658Z,3.07
2022-11-16T19:27:02.611Z,1.97
2022-11-16T19:29:30.178Z,3.20
2022-11-16T19:31:57.755Z,2.17
2022-11-16T19:34:29.004Z,2.07
2022-11-16T19:37:00.677Z,5.57
2022-11-16T19:39:28.291Z,4.03
2022-11-16T19:41:55.874Z,6.50
2022-11-16T19:44:24.805Z,4.33
2022-11-16T19:46:53.119Z,4.60
2022-11-16T19:49:21.735Z,4.50
2022-11-16T19:51:49.598Z,2.77
2022-11-16T19:54:17.260Z,3.63
2022-11-16T19:56:49.349Z,4.37
2022-11-16T19:59:19.882Z,3.50
2022-11-16T20:01:49.092Z,3.90
2022-11-16T20:04:16.813Z,3.67
2022-11-16T20:06:44.514Z,2.83
2022-11-16T20:09:12.453Z,2.33
2022-11-16T20:11:41.189Z,5.60
2022-11-16T20:14:09.594Z,4.70
2022-11-16T20:16:39.275Z,4.27
2022-11-16T20:19:08.602Z,2.43
2022-11-16T20:21:37.192Z,2.67
2022-11-16T20:24:07.022Z,3.33
2022-11-16T20:26:35.563Z,2.83
2022-11-16T20:29:03.235Z,5.07
2022-11-16T20:31:31.994Z,2.70
2022-11-16T20:34:00.340Z,3.17
2022-11-16T20:36:30.202Z,2.40
2022-11-16T20:38:58.366Z,1.90
2022-11-16T20:41:26.964Z,6.93
2022-11-16T20:43:55.320Z,3.10
2022-11-16T20:46:23.912Z,2.33
2022-11-16T20:48:51.516Z,1.87
2022-11-16T20:51:19.882Z,2.17
2022-11-16T20:53:49.326Z,1.63
2022-11-16T20:56:17.583Z,2.07
2022-11-16T20:58:45.483Z,2.47
2022-11-16T21:01:14.095Z,2.47
2022-11-16T21:03:42.461Z,1.70
2022-11-16T21:06:10.076Z,1.17
2022-11-16T21:08:38.350Z,2.10
2022-11-16T21:11:11.704Z,2.33
2022-11-16T21:13:47.862Z,2.57
2022-11-16T21:16:16.323Z,1.73
2022-11-16T21:18:43.952Z,2.20
2022-11-16T21:21:13.147Z,2.40
2022-11-16T21:23:43.080Z,1.93
2022-11-16T21:26:14.160Z,3.00
2022-11-16T21:28:44.611Z,4.33
2022-11-16T21:31:13.301Z,2.50
2022-11-16T21:33:40.963Z,2.53
2022-11-16T21:36:10.811Z,1.63
2022-11-16T21:38:38.673Z,2.00
2022-11-16T21:41:06.507Z,2.83
2022-11-16T21:43:36.505Z,5.93
2022-11-16T21:46:05.113Z,2.50
2022-11-16T21:48:34.051Z,2.60
2022-11-16T21:51:05.389Z,1.97
2022-11-16T21:53:33.828Z,1.80
2022-11-16T21:56:01.933Z,2.07
2022-11-16T21:58:29.531Z,1.90
2022-11-16T22:00:59.252Z,1.93
2022-11-16T22:03:29.211Z,1.63
2022-11-16T22:06:11.584Z,1.67
2022-11-16T22:08:40.001Z,1.60
2022-11-16T22:11:07.983Z,2.90
2022-11-16T22:13:36.210Z,5.03
2022-11-16T22:16:06.407Z,2.87
2022-11-16T22:18:34.192Z,2.47
2022-11-16T22:21:01.977Z,2.60
2022-11-16T22:23:29.776Z,2.23
2022-11-16T22:26:01.059Z,3.53
2022-11-16T22:28:28.773Z,2.17
2022-11-16T22:30:59.901Z,4.40
2022-11-16T22:33:29.015Z,1.70
2022-11-16T22:35:56.749Z,1.77
2022-11-16T22:38:24.757Z,2.63
2022-11-16T22:40:52.790Z,2.30
2022-11-16T22:43:20.779Z,3.80
2022-11-16T22:45:48.452Z,2.10
2022-11-16T22:48:16.385Z,6.33
2022-11-16T22:50:45.302Z,3.03
2022-11-16T22:53:12.981Z,5.33
2022-11-16T22:55:40.912Z,2.30
2022-11-16T22:58:08.527Z,2.23
2022-11-16T23:00:40.576Z,3.40
2022-11-16T23:03:09.807Z,2.23
2022-11-16T23:05:37.427Z,1.40
2022-11-16T23:08:06.393Z,3.50
2022-11-16T23:10:53.929Z,1.60
2022-11-16T23:13:35.755Z,2.33
2022-11-16T23:16:04.699Z,1.83
2022-11-16T23:18:32.319Z,2.27
2022-11-16T23:21:09.742Z,1.80
2022-11-16T23:23:50.020Z,2.03
2022-11-16T23:26:31.638Z,7.37
2022-11-16T23:28:59.314Z,2.87
2022-11-16T23:31:27.036Z,1.47
2022-11-16T23:33:54.741Z,1.67
2022-11-16T23:36:22.379Z,3.23
2022-11-16T23:38:51.415Z,1.63
2022-11-16T23:41:28.299Z,1.43
2022-11-16T23:43:58.943Z,1.40
2022-11-16T23:46:26.878Z,2.97
2022-11-16T23:48:54.501Z,1.77
2022-11-16T23:51:23.336Z,2.63
2022-11-16T23:53:52.703Z,2.60
2022-11-16T23:56:20.831Z,5.73
2022-11-16T23:58:48.731Z,2.30
